Time;durP1;ratioP1;P1;durP2;ratioP2;P2;SDS_P1;SDS_P2;PMS_P1;PMS_P2;Temp;Humidity;BMP_temperature;BMP_pressure;BME280_temperature;BME280_humidity;BME280_pressure;Samples;Min_cycle;Max_cycle;Signal;HPM_P1;HPM_P2
2022/10/26 00:01:41;;;;;;;0.90;0.90;;;20.10;75.40;;;;;;4974409;28;44868;-71
2022/10/26 00:07:43;;;;;;;0.87;0.87;;;20.20;75.80;;;;;;4981369;28;43473;-70
2022/10/26 00:10:37;;;;;;;0.80;0.80;;;20.30;75.30;;;;;;4992635;28;43484;-71
2022/10/26 00:13:47;;;;;;;0.87;0.87;;;20.30;75.00;;;;;;4979936;28;45679;-72
2022/10/26 00:16:47;;;;;;;0.90;0.90;;;20.30;75.20;;;;;;4976337;28;44347;-71
2022/10/26 00:19:53;;;;;;;0.90;0.90;;;20.20;75.40;;;;;;4976625;28;44018;-70
2022/10/26 00:22:55;;;;;;;1.17;0.90;;;20.20;75.20;;;;;;5009925;28;43499;-71
2022/10/26 00:26:26;;;;;;;0.90;0.90;;;20.20;75.30;;;;;;4987631;28;45630;-71
2022/10/26 00:32:41;;;;;;;0.77;0.77;;;20.10;75.90;;;;;;4991689;28;43390;-70
2022/10/26 00:35:50;;;;;;;0.70;0.70;;;20.10;75.90;;;;;;4987625;28;43481;-71
2022/10/26 00:45:45;;;;;;;0.87;0.87;;;20.00;76.40;;;;;;4985419;28;43493;-70
2022/10/26 00:48:56;;;;;;;0.90;0.90;;;20.10;76.00;;;;;;4979139;28;43482;-72
2022/10/26 00:51:44;;;;;;;0.70;0.70;;;20.30;75.40;;;;;;4985352;28;45645;-71
2022/10/26 00:54:28;;;;;;;0.90;0.90;;;20.40;74.80;;;;;;4977624;28;43436;-70
2022/10/26 00:57:22;;;;;;;0.80;0.80;;;20.40;74.60;;;;;;4988534;28;43441;-71
2022/10/26 01:00:24;;;;;;;0.70;0.70;;;20.40;74.60;;;;;;4986720;28;43429;-71
2022/10/26 01:03:14;;;;;;;0.80;0.80;;;20.30;75.00;;;;;;4967782;28;45824;-71
2022/10/26 01:06:28;;;;;;;0.83;0.83;;;20.20;75.50;;;;;;4971550;28;44704;-72
2022/10/26 01:10:20;;;;;;;0.80;0.80;;;20.20;75.60;;;;;;4959188;28;43519;-72
2022/10/26 01:14:34;;;;;;;0.80;0.80;;;20.10;75.60;;;;;;4953920;28;43421;-73
2022/10/26 01:22:06;;;;;;;0.80;0.80;;;20.00;76.20;;;;;;4961896;28;44638;-71
2022/10/26 01:26:09;;;;;;;0.80;0.80;;;20.00;76.00;;;;;;4945485;28;44189;-70
2022/10/26 01:29:21;;;;;;;0.70;0.70;;;19.90;76.10;;;;;;4965839;28;43577;-71
2022/10/26 01:32:29;;;;;;;0.87;0.70;;;19.90;76.50;;;;;;4957008;28;44005;-71
2022/10/26 01:39:17;;;;;;;0.80;0.80;;;20.20;75.40;;;;;;4946131;28;43515;-71
2022/10/26 01:42:18;;;;;;;0.90;0.90;;;20.40;74.70;;;;;;4952457;28;43445;-71
2022/10/26 01:48:07;;;;;;;0.77;0.77;;;20.30;74.60;;;;;;4970487;28;44620;-71
2022/10/26 01:51:03;;;;;;;0.80;0.80;;;20.20;74.90;;;;;;4947112;28;43897;-70
2022/10/26 01:54:10;;;;;;;1.00;1.00;;;20.10;75.50;;;;;;4954700;28;43871;-71
2022/10/26 01:57:15;;;;;;;0.80;0.80;;;20.10;75.60;;;;;;4962830;28;43636;-71
2022/10/26 02:00:14;;;;;;;0.90;0.90;;;20.10;75.70;;;;;;4967734;28;44663;-71
2022/10/26 02:03:15;;;;;;;0.80;0.80;;;20.00;75.70;;;;;;4952098;28;43443;-72
2022/10/26 02:09:47;;;;;;;0.80;0.80;;;20.00;76.20;;;;;;4956032;28;43957;-72
2022/10/26 02:12:35;;;;;;;0.80;0.80;;;19.90;76.00;;;;;;4958711;28;44442;-70
2022/10/26 02:15:39;;;;;;;0.80;0.80;;;19.90;76.10;;;;;;4973779;28;43366;-71
2022/10/26 02:18:45;;;;;;;0.80;0.80;;;19.90;76.60;;;;;;4964765;28;43424;-71
2022/10/26 02:21:29;;;;;;;0.90;0.90;;;19.90;76.40;;;;;;4958605;28;45437;-70
2022/10/26 02:30:25;;;;;;;0.90;0.90;;;20.30;74.90;;;;;;4956860;28;43812;-71
2022/10/26 02:33:41;;;;;;;0.80;0.80;;;20.30;74.80;;;;;;4963729;28;45465;-71
2022/10/26 02:36:59;;;;;;;0.70;0.70;;;20.20;75.00;;;;;;4967939;28;44626;-71
2022/10/26 02:39:50;;;;;;;0.70;0.70;;;20.10;75.50;;;;;;4974173;28;43534;-70
2022/10/26 02:42:52;;;;;;;0.80;0.80;;;20.10;75.90;;;;;;4966911;28;44043;-72
2022/10/26 02:45:53;;;;;;;0.60;0.60;;;20.00;75.70;;;;;;4962673;28;45379;-70
2022/10/26 02:48:40;;;;;;;0.90;0.90;;;20.00;75.70;;;;;;4961852;28;43575;-71
2022/10/26 02:51:31;;;;;;;0.80;0.80;;;20.00;76.70;;;;;;4955244;28;43481;-71
2022/10/26 02:58:02;;;;;;;0.90;0.90;;;20.00;76.90;;;;;;4976599;28;43982;-71
2022/10/26 03:01:05;;;;;;;0.80;0.80;;;20.10;75.50;;;;;;4959196;28;44451;-72
2022/10/26 03:04:09;;;;;;;0.90;0.90;;;20.20;75.40;;;;;;4981494;28;43378;-71
2022/10/26 03:07:15;;;;;;;0.90;0.90;;;20.10;75.50;;;;;;4979110;28;44046;-71
2022/10/26 03:09:55;;;;;;;0.80;0.80;;;20.10;75.60;;;;;;4986381;28;45432;-70
2022/10/26 03:16:11;;;;;;;0.83;0.83;;;20.10;75.60;;;;;;4979776;28;43603;-71
2022/10/26 03:19:20;;;;;;;0.50;0.50;;;20.00;76.00;;;;;;5001235;28;43549;-72
2022/10/26 03:22:09;;;;;;;0.60;0.60;;;20.00;76.20;;;;;;4985924;28;45690;-71
2022/10/26 03:25:03;;;;;;;0.60;0.60;;;20.00;76.00;;;;;;4981446;28;44325;-71
2022/10/26 03:27:45;;;;;;;0.70;0.70;;;19.90;75.90;;;;;;4980297;28;43425;-71
2022/10/26 03:30:46;;;;;;;0.70;0.70;;;19.90;76.10;;;;;;4983936;28;44017;-71
2022/10/26 03:33:35;;;;;;;0.57;0.57;;;19.90;76.60;;;;;;4978958;28;45505;-71
2022/10/26 03:36:21;;;;;;;0.80;0.80;;;19.90;76.40;;;;;;4991901;28;43477;-72
2022/10/26 03:39:04;;;;;;;0.80;0.80;;;20.00;75.90;;;;;;4986641;28;43443;-71
2022/10/26 03:41:33;;;;;;;0.70;0.70;;;20.20;75.60;;;;;;4977057;28;43403;-71
2022/10/26 03:44:01;;;;;;;0.63;0.63;;;20.20;75.40;;;;;;4971248;28;43913;-70
2022/10/26 03:46:29;;;;;;;0.70;0.70;;;20.10;75.30;;;;;;4976855;28;44894;-71
2022/10/26 03:48:58;;;;;;;0.80;0.80;;;20.10;75.70;;;;;;4981916;28;43423;-72
2022/10/26 03:51:46;;;;;;;0.70;0.70;;;20.10;75.60;;;;;;4972860;28;43479;-70
2022/10/26 03:55:13;;;;;;;0.80;0.80;;;20.10;75.50;;;;;;4982616;28;45968;-71
2022/10/26 03:58:31;;;;;;;0.70;0.70;;;20.00;75.60;;;;;;4979980;28;44397;-70
2022/10/26 04:01:41;;;;;;;0.90;0.90;;;20.00;76.20;;;;;;4982807;28;43544;-71
2022/10/26 04:05:13;;;;;;;0.67;0.67;;;20.00;76.10;;;;;;4982748;28;43426;-70
2022/10/26 04:08:22;;;;;;;0.90;0.90;;;20.00;76.00;;;;;;4974663;28;45438;-72
2022/10/26 04:11:41;;;;;;;0.70;0.70;;;19.90;76.00;;;;;;4992754;28;43405;-72
2022/10/26 04:23:01;;;;;;;0.70;0.70;;;20.20;75.70;;;;;;4965538;28;44014;-72
2022/10/26 04:25:34;;;;;;;0.70;0.70;;;20.20;75.30;;;;;;4951587;28;44319;-72
2022/10/26 04:28:03;;;;;;;0.70;0.70;;;20.20;75.60;;;;;;4975922;28;43437;-71
2022/10/26 04:30:33;;;;;;;0.70;0.70;;;20.10;75.50;;;;;;4978474;28;43398;-70
2022/10/26 04:33:01;;;;;;;0.60;0.60;;;20.20;75.50;;;;;;4970858;28;43609;-71
2022/10/26 04:35:29;;;;;;;0.70;0.70;;;20.20;75.50;;;;;;4971422;28;43597;-71
2022/10/26 04:37:59;;;;;;;0.70;0.70;;;20.10;75.50;;;;;;4973683;28;43564;-71
2022/10/26 04:40:28;;;;;;;0.80;0.80;;;20.00;76.00;;;;;;4969501;28;43830;-71
2022/10/26 04:42:56;;;;;;;0.70;0.70;;;20.00;76.10;;;;;;4972191;28;44139;-71
2022/10/26 04:45:29;;;;;;;0.90;0.90;;;20.00;76.00;;;;;;4969542;28;43541;-71
2022/10/26 04:48:02;;;;;;;0.80;0.80;;;20.00;75.90;;;;;;4969501;28;43459;-71
2022/10/26 04:50:30;;;;;;;0.80;0.80;;;20.00;76.00;;;;;;4951623;28;43574;-71
2022/10/26 04:52:59;;;;;;;0.70;0.70;;;19.90;76.20;;;;;;4978896;28;43921;-71
2022/10/26 04:55:27;;;;;;;0.70;0.70;;;19.90;76.50;;;;;;4967084;28;43373;-70
2022/10/26 04:57:55;;;;;;;0.80;0.80;;;19.90;76.40;;;;;;4958992;28;43518;-72
2022/10/26 05:00:28;;;;;;;0.50;0.50;;;19.90;76.20;;;;;;4956029;28;43545;-72
2022/10/26 05:03:01;;;;;;;0.60;0.60;;;19.90;76.20;;;;;;4967487;28;43838;-72
2022/10/26 05:05:31;;;;;;;0.70;0.70;;;19.90;76.30;;;;;;4977791;28;43494;-71
2022/10/26 05:08:00;;;;;;;0.60;0.60;;;19.90;76.70;;;;;;4972458;28;44125;-72
2022/10/26 05:10:28;;;;;;;0.77;0.77;;;19.90;76.50;;;;;;4973020;28;43386;-70
2022/10/26 05:12:58;;;;;;;0.80;0.80;;;20.00;76.10;;;;;;4972031;28;44011;-70
2022/10/26 05:15:26;;;;;;;0.60;0.60;;;20.20;75.60;;;;;;4981735;28;43428;-71
2022/10/26 05:17:57;;;;;;;0.70;0.70;;;20.30;75.10;;;;;;4987452;28;43392;-72
2022/10/26 05:20:28;;;;;;;0.77;0.70;;;20.30;75.60;;;;;;4973522;28;43373;-72
2022/10/26 05:22:56;;;;;;;0.70;0.70;;;20.30;74.90;;;;;;4987114;28;43601;-71
2022/10/26 05:25:25;;;;;;;0.63;0.63;;;20.20;75.10;;;;;;4975876;28;44626;-71
2022/10/26 05:27:58;;;;;;;0.80;0.80;;;20.10;75.30;;;;;;4984550;28;43928;-71
2022/10/26 05:30:26;;;;;;;0.60;0.60;;;20.00;75.80;;;;;;4983390;28;43405;-72
2022/10/26 05:32:55;;;;;;;0.60;0.60;;;20.00;75.80;;;;;;4992814;28;46351;-71
2022/10/26 05:35:22;;;;;;;0.80;0.80;;;20.00;75.80;;;;;;4981718;28;43479;-71
2022/10/26 05:37:50;;;;;;;0.60;0.60;;;20.00;76.60;;;;;;4979468;28;43469;-72
2022/10/26 05:40:18;;;;;;;1.00;1.00;;;19.90;75.90;;;;;;4976813;28;43539;-72
2022/10/26 05:42:49;;;;;;;0.63;0.63;;;19.90;76.40;;;;;;4968253;28;45571;-71
2022/10/26 05:45:18;;;;;;;0.70;0.70;;;19.90;76.40;;;;;;4978438;28;43978;-70
2022/10/26 05:47:46;;;;;;;0.80;0.80;;;19.90;76.20;;;;;;4968481;28;43369;-71
2022/10/26 05:50:14;;;;;;;0.63;0.63;;;19.90;76.10;;;;;;4979105;28;43418;-70
2022/10/26 05:52:44;;;;;;;0.70;0.70;;;19.90;76.20;;;;;;4972473;28;44676;-71
2022/10/26 05:55:13;;;;;;;0.60;0.60;;;19.80;76.60;;;;;;4982362;28;43476;-72
2022/10/26 05:57:42;;;;;;;0.60;0.60;;;19.90;76.70;;;;;;4980059;28;43464;-71
2022/10/26 06:00:16;;;;;;;0.70;0.70;;;20.00;76.40;;;;;;4979819;28;43432;-71
2022/10/26 06:02:51;;;;;;;0.83;0.83;;;20.10;75.80;;;;;;4970648;28;44061;-72
2022/10/26 06:05:26;;;;;;;0.80;0.80;;;20.30;75.20;;;;;;4980417;28;43462;-72
2022/10/26 06:07:58;;;;;;;0.70;0.70;;;20.40;74.90;;;;;;4981637;28;43391;-71
2022/10/26 06:10:31;;;;;;;0.60;0.60;;;20.30;74.70;;;;;;4975177;28;44164;-73
2022/10/26 06:13:00;;;;;;;0.63;0.63;;;20.30;74.80;;;;;;4992087;28;45676;-73
2022/10/26 06:15:29;;;;;;;0.77;0.77;;;20.20;74.90;;;;;;4971755;28;43430;-73
2022/10/26 06:18:00;;;;;;;0.70;0.70;;;20.10;75.50;;;;;;4985817;28;44049;-71
2022/10/26 06:20:44;;;;;;;0.70;0.70;;;20.10;75.70;;;;;;4983196;28;43663;-72
2022/10/26 06:23:40;;;;;;;0.80;0.80;;;20.10;75.70;;;;;;4988942;28;43876;-70
2022/10/26 06:26:12;;;;;;;0.50;0.50;;;20.00;75.70;;;;;;4981472;28;43520;-72
2022/10/26 06:28:44;;;;;;;0.80;0.80;;;20.00;75.90;;;;;;4985604;28;43515;-71
2022/10/26 06:31:20;;;;;;;0.77;0.77;;;19.90;76.30;;;;;;4976343;28;44154;-71
2022/10/26 06:33:50;;;;;;;0.60;0.60;;;19.90;76.30;;;;;;4983808;28;45628;-71
2022/10/26 06:36:21;;;;;;;0.70;0.70;;;19.90;76.10;;;;;;4979823;28;44957;-72
2022/10/26 06:38:50;;;;;;;0.80;0.80;;;19.90;76.10;;;;;;4976661;28;43414;-71
2022/10/26 06:41:18;;;;;;;0.70;0.70;;;19.90;76.20;;;;;;4988345;28;43607;-71
2022/10/26 06:47:18;;;;;;;0.70;0.70;;;19.90;76.60;;;;;;4991400;28;43445;-72
2022/10/26 06:50:45;;;;;;;0.73;0.73;;;20.00;76.00;;;;;;4987858;28;43395;-72
2022/10/26 07:01:01;;;;;;;0.60;0.60;;;20.00;75.80;;;;;;4979756;28;43487;-70
2022/10/26 07:03:55;;;;;;;0.60;0.60;;;20.10;75.80;;;;;;4952074;28;43476;-71
2022/10/26 07:06:44;;;;;;;0.70;0.70;;;20.00;75.60;;;;;;4932684;28;43444;-70
2022/10/26 07:09:32;;;;;;;0.80;0.80;;;20.00;75.90;;;;;;4950588;28;43837;-71
2022/10/26 07:12:28;;;;;;;0.70;0.70;;;19.90;76.30;;;;;;4937971;28;43512;-71
2022/10/26 07:26:45;;;;;;;0.77;0.77;;;19.80;76.70;;;;;;4940327;28;44027;-72
2022/10/26 07:29:26;;;;;;;0.70;0.70;;;20.00;76.50;;;;;;4945164;28;43430;-71
2022/10/26 07:39:33;;;;;;;0.80;0.80;;;20.30;74.90;;;;;;4950450;28;43494;-72
2022/10/26 07:42:39;;;;;;;0.77;0.77;;;20.20;75.00;;;;;;4951322;28;43411;-71
2022/10/26 07:45:14;;;;;;;0.83;0.83;;;20.10;75.30;;;;;;4952113;28;44067;-71
2022/10/26 07:47:42;;;;;;;0.70;0.70;;;20.00;75.90;;;;;;4945819;28;43903;-70
2022/10/26 07:50:19;;;;;;;1.03;0.70;;;20.00;75.90;;;;;;4942786;28;43569;-71
2022/10/26 07:52:58;;;;;;;0.60;0.60;;;20.00;75.90;;;;;;4947270;28;43387;-71
2022/10/26 07:55:27;;;;;;;0.80;0.80;;;19.90;75.80;;;;;;4935520;28;44125;-71
2022/10/26 07:57:56;;;;;;;0.50;0.50;;;19.90;76.00;;;;;;4951246;28;45703;-72
2022/10/26 08:00:27;;;;;;;0.90;0.90;;;19.80;76.50;;;;;;4943530;28;45104;-71
2022/10/26 08:03:06;;;;;;;0.60;0.60;;;19.90;76.40;;;;;;4973593;28;43386;-72
2022/10/26 08:06:16;;;;;;;0.67;0.67;;;20.00;76.00;;;;;;4995499;28;43952;-72
2022/10/26 08:09:54;;;;;;;0.70;0.70;;;20.00;75.60;;;;;;4956908;28;45676;-71
2022/10/26 08:13:42;;;;;;;0.60;0.60;;;20.00;75.80;;;;;;4978284;28;43420;-71
2022/10/26 08:16:51;;;;;;;0.70;0.70;;;20.00;75.90;;;;;;4981061;28;44049;-72
2022/10/26 08:19:56;;;;;;;0.60;0.60;;;20.00;75.70;;;;;;4992023;28;43505;-70
2022/10/26 08:26:00;;;;;;;0.70;0.70;;;19.90;76.30;;;;;;4969740;28;44080;-70
2022/10/26 09:07:18;;;;;;;0.70;0.70;;;19.80;76.80;;;;;;5109164;27;43430;-71
2022/10/26 09:09:57;;;;;;;0.80;0.80;;;19.90;76.20;;;;;;5107308;27;43363;-71
2022/10/26 09:16:16;;;;;;;0.73;0.73;;;20.10;75.60;;;;;;5106376;27;44033;-72
2022/10/26 09:22:48;;;;;;;0.80;0.80;;;20.00;75.70;;;;;;5088206;27;43474;-70
2022/10/26 09:28:58;;;;;;;0.77;0.77;;;20.00;75.80;;;;;;5087199;27;45770;-71
2022/10/26 09:31:59;;;;;;;0.80;0.80;;;19.90;76.00;;;;;;5108999;27;43527;-71
2022/10/26 09:35:18;;;;;;;0.90;0.90;;;19.80;76.30;;;;;;5114795;27;43466;-71
2022/10/26 09:38:37;;;;;;;0.90;0.90;;;19.90;76.30;;;;;;5107175;27;43482;-70
2022/10/26 09:41:27;;;;;;;0.90;0.90;;;19.80;76.20;;;;;;5086138;27;45668;-70
2022/10/26 09:44:33;;;;;;;1.00;1.00;;;19.80;76.30;;;;;;5094299;27;43451;-71
2022/10/26 09:47:46;;;;;;;0.97;0.97;;;19.80;76.80;;;;;;5088923;27;43418;-70
2022/10/26 09:51:25;;;;;;;1.00;1.00;;;19.90;76.50;;;;;;5109122;27;44136;-73
2022/10/26 10:04:30;;;;;;;0.90;0.90;;;20.00;75.70;;;;;;5083950;27;44015;-71
2022/10/26 10:07:12;;;;;;;1.07;0.80;;;20.00;75.60;;;;;;5089868;27;43842;-70
2022/10/26 10:09:42;;;;;;;0.77;0.77;;;20.00;75.80;;;;;;5101221;27;45301;-72
2022/10/26 10:12:19;;;;;;;1.00;1.00;;;19.90;76.10;;;;;;5099975;27;43486;-70
2022/10/26 10:14:56;;;;;;;1.00;1.00;;;19.90;76.30;;;;;;5097793;27;43416;-71
2022/10/26 10:17:24;;;;;;;0.73;0.73;;;19.90;76.20;;;;;;5090895;27;43924;-71
2022/10/26 10:19:52;;;;;;;0.97;0.97;;;19.90;76.10;;;;;;5098948;27;43410;-72
2022/10/26 10:22:21;;;;;;;1.00;1.00;;;19.80;76.10;;;;;;5096363;27;43462;-73
2022/10/26 10:24:55;;;;;;;1.00;1.00;;;19.80;76.40;;;;;;5105495;27;44075;-72
2022/10/26 10:27:23;;;;;;;0.90;0.90;;;19.80;76.70;;;;;;5100084;27;43954;-72
2022/10/26 10:29:52;;;;;;;0.90;0.90;;;19.90;76.40;;;;;;5096753;27;43456;-71
2022/10/26 10:32:21;;;;;;;0.90;0.90;;;20.00;76.00;;;;;;5094200;27;43811;-70
2022/10/26 10:34:49;;;;;;;0.70;0.70;;;20.20;75.40;;;;;;5096171;27;43458;-70
2022/10/26 10:37:23;;;;;;;1.00;1.00;;;20.30;75.20;;;;;;5090299;27;44781;-71
2022/10/26 10:39:52;;;;;;;0.87;0.87;;;20.20;74.90;;;;;;5092267;27;43528;-71
2022/10/26 10:42:23;;;;;;;0.90;0.90;;;20.20;75.20;;;;;;5092373;27;43416;-70
2022/10/26 10:44:52;;;;;;;0.80;0.80;;;20.10;75.50;;;;;;5082375;27;43407;-70
2022/10/26 10:48:13;;;;;;;0.90;0.90;;;20.00;76.60;;;;;;5072661;27;45780;-70
2022/10/26 10:51:11;;;;;;;1.07;1.07;;;20.00;76.10;;;;;;5087415;27;44323;-71
2022/10/26 11:26:00;;;;;;;1.80;1.53;;;20.20;75.40;;;;;;5072431;28;43410;-73
2022/10/26 11:28:37;;;;;;;1.10;1.10;;;20.20;75.80;;;;;;5073833;28;43506;-71
2022/10/26 11:31:10;;;;;;;1.20;1.20;;;20.10;76.00;;;;;;5065198;28;44241;-71
2022/10/26 11:33:41;;;;;;;1.30;1.30;;;20.00;76.20;;;;;;5064814;28;43990;-71
2022/10/26 11:36:10;;;;;;;2.40;1.50;;;20.00;76.20;;;;;;5073629;28;43383;-71
2022/10/26 11:38:40;;;;;;;1.57;1.43;;;20.00;76.40;;;;;;5070854;28;43433;-71
2022/10/26 11:41:24;;;;;;;0.97;0.97;;;20.00;76.50;;;;;;5065616;28;44052;-69
2022/10/26 11:43:54;;;;;;;1.50;1.40;;;19.90;76.50;;;;;;5071874;28;44760;-71
2022/10/26 11:46:26;;;;;;;1.43;1.40;;;19.90;76.70;;;;;;5067056;28;43404;-71
2022/10/26 11:48:55;;;;;;;1.20;1.20;;;19.90;76.70;;;;;;5067976;28;43499;-72
2022/10/26 11:51:33;;;;;;;1.37;1.37;;;19.90;76.80;;;;;;5063002;28;46143;-72
2022/10/26 11:54:04;;;;;;;1.20;1.20;;;19.90;76.80;;;;;;5055706;28;44045;-72
2022/10/26 11:56:34;;;;;;;1.40;1.40;;;19.90;76.90;;;;;;5059234;28;43427;-70
2022/10/26 11:59:02;;;;;;;1.20;1.20;;;19.90;76.90;;;;;;5058071;28;43445;-71
2022/10/26 12:01:31;;;;;;;1.30;1.30;;;19.80;76.90;;;;;;5064113;28;43967;-70
2022/10/26 12:03:59;;;;;;;1.40;1.30;;;19.90;76.70;;;;;;5063703;28;43421;-72
2022/10/26 12:06:29;;;;;;;1.40;1.40;;;20.00;76.20;;;;;;5064982;28;43380;-71
2022/10/26 12:16:35;;;;;;;1.30;1.30;;;20.20;75.60;;;;;;5065173;28;43983;-71
2022/10/26 12:20:01;;;;;;;1.50;1.40;;;20.10;75.90;;;;;;5065755;28;43354;-71
2022/10/26 12:22:31;;;;;;;1.37;1.37;;;20.00;76.20;;;;;;5058558;28;43517;-70
2022/10/26 12:25:06;;;;;;;1.20;1.20;;;20.00;76.20;;;;;;5058086;28;45958;-70
2022/10/26 12:27:53;;;;;;;1.20;1.20;;;20.00;76.40;;;;;;5060820;28;44430;-72
2022/10/26 12:30:27;;;;;;;1.10;1.10;;;20.00;76.60;;;;;;5055042;28;43558;-71
2022/10/26 12:32:56;;;;;;;1.73;1.10;;;20.00;76.70;;;;;;5060525;28;43710;-71
2022/10/26 12:35:37;;;;;;;1.10;1.10;;;19.90;76.70;;;;;;5061141;28;44501;-71
2022/10/26 12:38:54;;;;;;;1.37;1.37;;;19.90;76.70;;;;;;5062578;28;44023;-70
2022/10/26 12:41:25;;;;;;;1.10;1.10;;;19.90;76.70;;;;;;5058469;28;43457;-71
2022/10/26 12:43:57;;;;;;;1.07;1.07;;;19.90;76.80;;;;;;5060933;28;43534;-71
2022/10/26 12:46:40;;;;;;;1.17;1.17;;;19.90;76.80;;;;;;5062289;28;43916;-71
2022/10/26 12:49:38;;;;;;;1.10;1.10;;;19.90;76.90;;;;;;5064978;28;43841;-71
2022/10/26 12:52:27;;;;;;;1.10;1.10;;;19.90;76.50;;;;;;5038020;28;43468;-71
2022/10/26 12:55:34;;;;;;;1.00;1.00;;;20.10;76.10;;;;;;5065300;28;44009;-71
2022/10/26 12:58:41;;;;;;;1.03;1.03;;;20.20;75.40;;;;;;5063996;28;45791;-70
2022/10/26 13:01:31;;;;;;;0.90;0.90;;;20.30;75.30;;;;;;5059542;28;43445;-71
2022/10/26 13:04:14;;;;;;;0.83;0.83;;;20.30;75.50;;;;;;5057929;28;43396;-71
2022/10/26 13:06:54;;;;;;;1.20;1.20;;;20.20;75.70;;;;;;5065404;28;43406;-72
2022/10/26 13:09:24;;;;;;;1.30;1.30;;;20.20;75.90;;;;;;5055411;28;45961;-72
2022/10/26 13:11:53;;;;;;;1.10;1.10;;;20.10;76.00;;;;;;5065063;28;43917;-70
2022/10/26 13:14:22;;;;;;;1.00;1.00;;;20.10;76.20;;;;;;5066030;28;43416;-70
2022/10/26 13:17:00;;;;;;;1.20;1.20;;;20.10;76.20;;;;;;5061677;28;43485;-71
2022/10/26 13:31:08;;;;;;;1.00;1.00;;;20.00;76.60;;;;;;5062301;28;44147;-71
2022/10/26 13:46:29;;;;;;;0.80;0.80;;;20.20;75.40;;;;;;4946387;28;43524;-70
2022/10/26 13:49:04;;;;;;;1.10;1.10;;;20.30;75.20;;;;;;4944254;28;45319;-71
2022/10/26 13:51:39;;;;;;;0.87;0.87;;;20.30;75.40;;;;;;4946019;28;43533;-71
2022/10/26 13:54:13;;;;;;;0.90;0.90;;;20.20;75.50;;;;;;4931914;28;43538;-70
2022/10/26 13:56:43;;;;;;;1.00;1.00;;;20.10;75.60;;;;;;4948108;28;43478;-71
2022/10/26 13:59:13;;;;;;;1.10;1.10;;;20.10;76.00;;;;;;4947417;28;43613;-72
2022/10/26 14:02:07;;;;;;;0.87;0.87;;;20.10;76.00;;;;;;4946653;28;44435;-71
2022/10/26 14:04:35;;;;;;;0.80;0.80;;;20.00;75.90;;;;;;4940998;28;43482;-71
2022/10/26 14:07:05;;;;;;;1.10;1.10;;;20.00;76.00;;;;;;4948092;28;43527;-72
2022/10/26 14:09:33;;;;;;;1.10;1.10;;;20.00;76.10;;;;;;4947233;28;43845;-73
2022/10/26 14:12:01;;;;;;;0.93;0.93;;;19.90;76.40;;;;;;4947462;28;43555;-70
2022/10/26 14:14:35;;;;;;;1.00;1.00;;;20.00;76.40;;;;;;4946228;28;44013;-72
2022/10/26 14:17:04;;;;;;;0.90;0.90;;;20.00;76.20;;;;;;4947759;28;43491;-70
2022/10/26 14:19:33;;;;;;;0.90;0.90;;;19.90;76.10;;;;;;4947282;28;43605;-72
2022/10/26 14:22:01;;;;;;;1.00;1.00;;;19.90;76.20;;;;;;4991972;28;43947;-71
2022/10/26 14:24:31;;;;;;;0.93;0.93;;;19.90;76.50;;;;;;5062689;28;43367;-73
2022/10/26 14:27:15;;;;;;;0.90;0.90;;;19.90;76.60;;;;;;5064532;28;43388;-72
2022/10/26 14:29:43;;;;;;;1.00;1.00;;;20.00;76.30;;;;;;5062970;28;44069;-71
2022/10/26 14:32:22;;;;;;;0.90;0.90;;;20.20;75.90;;;;;;5068449;28;43336;-71
2022/10/26 14:34:51;;;;;;;0.80;0.80;;;20.30;75.30;;;;;;5061351;28;43451;-72
2022/10/26 14:37:25;;;;;;;0.90;0.90;;;20.30;75.00;;;;;;5064620;28;43554;-71
2022/10/26 14:39:53;;;;;;;1.00;1.00;;;20.30;74.90;;;;;;5055569;28;44621;-71
2022/10/26 14:42:24;;;;;;;0.90;0.90;;;20.20;75.00;;;;;;5065246;28;43434;-70
2022/10/26 14:44:52;;;;;;;1.00;1.00;;;20.20;75.30;;;;;;5061619;28;43393;-71
2022/10/26 14:47:23;;;;;;;0.90;0.90;;;20.10;75.70;;;;;;5058361;28;43524;-71
2022/10/26 14:49:53;;;;;;;0.97;0.97;;;20.10;75.90;;;;;;5062662;28;45547;-70
2022/10/26 14:52:24;;;;;;;0.90;0.90;;;20.10;75.90;;;;;;5087969;27;43510;-71
2022/10/26 14:54:58;;;;;;;1.00;1.00;;;20.00;75.80;;;;;;5088612;28;43455;-72
2022/10/26 14:57:31;;;;;;;0.80;0.80;;;20.00;75.90;;;;;;5084552;28;43394;-73
2022/10/26 15:00:33;;;;;;;0.87;0.87;;;20.00;76.30;;;;;;5087398;27;43633;-72
2022/10/26 15:03:35;;;;;;;0.90;0.90;;;20.00;76.50;;;;;;5078386;28;44664;-72
2022/10/26 15:17:33;;;;;;;0.90;0.90;;;20.10;75.90;;;;;;5087447;28;43410;-71
2022/10/26 15:21:05;;;;;;;0.80;0.80;;;20.00;75.80;;;;;;5077929;28;43537;-71
2022/10/26 15:35:45;;;;;;;0.70;0.70;;;20.10;75.90;;;;;;5076249;28;43443;-72
2022/10/26 15:39:09;;;;;;;0.97;0.97;;;20.10;75.70;;;;;;5084945;28;44261;-71
2022/10/26 15:54:09;;;;;;;0.80;0.80;;;20.00;76.60;;;;;;5085274;27;43571;-71
2022/10/26 16:01:20;;;;;;;0.90;0.90;;;19.90;76.30;;;;;;5089715;27;43548;-71
2022/10/26 16:04:36;;;;;;;0.80;0.80;;;19.90;76.50;;;;;;5088413;27;43470;-72
2022/10/26 16:07:27;;;;;;;0.80;0.80;;;19.90;76.70;;;;;;5087981;27;43482;-71
2022/10/26 16:09:55;;;;;;;0.90;0.90;;;20.10;76.30;;;;;;5092252;27;43672;-71
2022/10/26 16:12:23;;;;;;;0.80;0.80;;;20.20;75.70;;;;;;5083686;27;45113;-71
2022/10/26 16:14:51;;;;;;;0.97;0.97;;;20.30;75.30;;;;;;5090151;27;43773;-72
2022/10/26 16:17:34;;;;;;;0.90;0.90;;;20.30;75.10;;;;;;5075175;28;43611;-72
2022/10/26 16:20:04;;;;;;;0.70;0.70;;;20.30;75.20;;;;;;5097022;27;43964;-71
2022/10/26 16:23:06;;;;;;;0.90;0.90;;;20.20;75.40;;;;;;5098625;27;43585;-72
2022/10/26 16:25:55;;;;;;;0.60;0.60;;;20.20;75.70;;;;;;5075235;27;43450;-71
2022/10/26 16:29:39;;;;;;;0.70;0.70;;;20.10;76.20;;;;;;5088254;27;43581;-72
2022/10/26 16:33:30;;;;;;;0.90;0.90;;;20.10;76.10;;;;;;5101536;27;44038;-70
2022/10/26 16:37:33;;;;;;;0.80;0.80;;;20.00;76.10;;;;;;5044388;27;44740;-72
2022/10/26 16:47:50;;;;;;;0.73;0.73;;;20.20;76.00;;;;;;5098189;27;43942;-72
2022/10/26 16:55:04;;;;;;;0.80;0.80;;;20.40;75.00;;;;;;5070663;27;43395;-72
2022/10/26 17:01:27;;;;;;;0.80;0.80;;;20.20;75.60;;;;;;5071837;27;45705;-70
2022/10/26 17:04:39;;;;;;;0.70;0.70;;;20.10;76.10;;;;;;5081036;27;44844;-70
2022/10/26 17:08:35;;;;;;;0.60;0.60;;;20.10;76.00;;;;;;5090557;27;43518;-71
2022/10/26 17:15:40;;;;;;;0.80;0.80;;;20.00;76.20;;;;;;5079086;28;45461;-71
2022/10/26 17:18:53;;;;;;;0.80;0.80;;;20.00;76.60;;;;;;5076412;27;43384;-71
2022/10/26 17:21:58;;;;;;;0.70;0.70;;;20.00;76.40;;;;;;5080924;27;43453;-72
2022/10/26 17:28:35;;;;;;;0.80;0.80;;;20.00;76.60;;;;;;5085557;27;45732;-70
2022/10/26 17:32:21;;;;;;;0.67;0.67;;;20.00;76.90;;;;;;5098218;27;43509;-71
2022/10/26 17:35:56;;;;;;;0.70;0.70;;;20.10;76.30;;;;;;5104498;27;44052;-70
2022/10/26 17:39:18;;;;;;;0.70;0.70;;;20.30;75.50;;;;;;5101730;27;43485;-71
2022/10/26 17:43:04;;;;;;;0.90;0.90;;;20.40;75.00;;;;;;5107009;27;45594;-70
2022/10/26 17:50:18;;;;;;;0.80;0.80;;;20.30;75.40;;;;;;4571601;27;16100203;-70
2022/10/26 17:56:45;;;;;;;0.90;0.90;;;20.20;75.90;;;;;;5131483;27;43875;-71
2022/10/26 18:06:44;;;;;;;0.80;0.80;;;20.00;76.50;;;;;;5106968;27;43704;-69
2022/10/26 18:21:24;;;;;;;0.87;0.87;;;20.00;76.90;;;;;;5132888;27;44078;-72
2022/10/26 18:24:50;;;;;;;0.90;0.90;;;20.10;76.30;;;;;;5110147;27;45507;-70
2022/10/26 18:31:29;;;;;;;0.70;0.70;;;20.40;75.10;;;;;;5125039;27;43448;-72
2022/10/26 18:37:48;;;;;;;0.80;0.80;;;20.20;75.30;;;;;;5106244;27;44029;-70
2022/10/26 18:41:09;;;;;;;0.83;0.83;;;20.20;76.10;;;;;;5109877;27;44666;-71
2022/10/26 18:44:33;;;;;;;0.90;0.90;;;20.10;76.00;;;;;;5129464;27;43431;-71
2022/10/26 18:47:51;;;;;;;0.80;0.80;;;20.10;75.90;;;;;;5116852;27;43505;-72
2022/10/26 18:54:26;;;;;;;0.87;0.87;;;20.00;76.60;;;;;;5082615;27;43438;-71
2022/10/26 19:11:18;;;;;;;0.73;0.73;;;20.30;75.10;;;;;;5073976;28;43336;-72
2022/10/26 19:21:35;;;;;;;0.97;0.97;;;20.20;75.90;;;;;;5075688;28;43479;-70
2022/10/26 19:24:59;;;;;;;0.80;0.80;;;20.10;76.00;;;;;;5068652;28;43412;-72
2022/10/26 19:31:39;;;;;;;0.70;0.70;;;20.00;76.50;;;;;;5076389;28;45313;-71
2022/10/26 19:41:33;;;;;;;0.90;0.90;;;20.00;76.90;;;;;;5079891;28;43563;-72
2022/10/26 19:44:54;;;;;;;0.90;0.90;;;20.10;76.60;;;;;;5066896;28;44097;-71
2022/10/26 19:51:33;;;;;;;0.87;0.87;;;20.40;75.10;;;;;;5069673;28;43572;-71
2022/10/26 20:02:09;;;;;;;0.80;0.80;;;20.30;75.30;;;;;;5063662;28;43473;-70
2022/10/26 20:16:11;;;;;;;0.90;0.90;;;20.10;76.20;;;;;;5078320;28;44687;-71
2022/10/26 20:23:12;;;;;;;0.93;0.93;;;20.20;76.00;;;;;;5074965;28;43498;-71
2022/10/26 20:26:21;;;;;;;0.80;0.80;;;20.30;75.60;;;;;;5068173;28;45385;-70
2022/10/26 20:32:57;;;;;;;1.03;1.03;;;20.30;75.90;;;;;;5071471;28;43384;-71
2022/10/26 20:43:15;;;;;;;0.90;0.90;;;20.10;76.00;;;;;;5075959;28;44556;-70
2022/10/26 20:46:25;;;;;;;1.00;1.00;;;20.10;76.30;;;;;;5060197;28;43460;-71
2022/10/26 20:49:59;;;;;;;0.90;0.90;;;20.10;76.10;;;;;;5083213;27;43459;-70
2022/10/26 20:53:18;;;;;;;0.83;0.83;;;20.00;76.20;;;;;;5098265;27;44201;-70